createdAt,value
2023-03-15T00:00:42.712Z,24.06
2023-03-15T00:03:09.526Z,24.03
2023-03-15T00:05:35.847Z,24.01
2023-03-15T00:08:04.393Z,24.00
2023-03-15T00:10:30.901Z,23.98
2023-03-15T00:12:57.219Z,23.97
2023-03-15T00:15:23.530Z,23.96
2023-03-15T00:17:49.839Z,23.95
2023-03-15T00:20:16.257Z,23.91
2023-03-15T00:22:42.819Z,23.87
2023-03-15T00:25:09.368Z,23.83
2023-03-15T00:27:35.690Z,23.80
2023-03-15T00:30:02.000Z,23.78
2023-03-15T00:32:28.847Z,23.75
2023-03-15T00:34:55.536Z,23.71
2023-03-15T00:37:21.851Z,23.66
2023-03-15T00:39:48.237Z,23.65
2023-03-15T00:42:17.481Z,23.61
2023-03-15T00:44:44.300Z,23.59
2023-03-15T00:47:11.130Z,23.57
2023-03-15T00:49:37.527Z,23.54
2023-03-15T00:52:04.082Z,23.53
2023-03-15T00:54:33.363Z,23.53
2023-03-15T00:57:00.199Z,23.52
2023-03-15T00:59:27.905Z,23.54
2023-03-15T01:01:54.278Z,23.52
2023-03-15T01:04:21.047Z,23.49
2023-03-15T01:06:47.371Z,23.47
2023-03-15T01:09:13.717Z,23.46
2023-03-15T01:11:40.148Z,23.43
2023-03-15T01:14:08.761Z,23.41
2023-03-15T01:16:35.127Z,23.32
2023-03-15T01:19:01.475Z,23.33
2023-03-15T01:21:27.779Z,23.29
2023-03-15T01:23:54.193Z,23.25
2023-03-15T01:26:20.537Z,23.23
2023-03-15T01:28:47.173Z,23.20
2023-03-15T01:31:20.614Z,23.20
2023-03-15T01:33:46.972Z,23.21
2023-03-15T01:36:13.283Z,23.24
2023-03-15T01:38:39.604Z,23.26
2023-03-15T01:41:05.929Z,23.26
2023-03-15T01:43:32.309Z,23.27
2023-03-15T01:46:01.682Z,23.23
2023-03-15T01:48:29.990Z,23.19
2023-03-15T01:50:56.309Z,23.17
2023-03-15T01:53:22.830Z,23.14
2023-03-15T01:55:49.189Z,23.12
2023-03-15T01:58:15.526Z,23.11
2023-03-15T02:00:41.880Z,23.07
2023-03-15T02:03:17.074Z,23.06
2023-03-15T02:05:46.968Z,23.04
2023-03-15T02:08:13.429Z,23.02
2023-03-15T02:10:41.523Z,23.00
2023-03-15T02:13:07.917Z,22.98
2023-03-15T02:15:34.241Z,22.95
2023-03-15T02:18:00.587Z,22.91
2023-03-15T02:20:42.063Z,22.88
2023-03-15T02:23:09.126Z,22.86
2023-03-15T02:25:35.405Z,22.83
2023-03-15T02:28:01.898Z,22.81
2023-03-15T02:30:28.223Z,22.80
2023-03-15T02:32:54.873Z,22.77
2023-03-15T02:35:28.024Z,22.75
2023-03-15T02:37:54.350Z,22.73
2023-03-15T02:40:21.382Z,22.72
2023-03-15T02:42:48.045Z,22.73
2023-03-15T02:45:14.353Z,22.72
2023-03-15T02:47:40.708Z,22.70
2023-03-15T02:50:08.192Z,22.70
2023-03-15T02:52:34.753Z,22.69
2023-03-15T02:55:02.144Z,22.67
2023-03-15T02:57:28.753Z,22.67
2023-03-15T02:59:55.530Z,22.64
2023-03-15T03:02:21.948Z,22.62
2023-03-15T03:04:48.317Z,22.60
2023-03-15T03:07:14.649Z,22.62
2023-03-15T03:09:40.966Z,22.63
2023-03-15T03:12:07.396Z,22.66
2023-03-15T03:14:33.955Z,22.68
2023-03-15T03:17:01.499Z,22.67
2023-03-15T03:19:27.912Z,22.59
2023-03-15T03:21:54.426Z,22.52
2023-03-15T03:24:20.791Z,22.50
2023-03-15T03:26:47.125Z,22.49
2023-03-15T03:29:16.621Z,22.49
2023-03-15T03:31:43.953Z,22.49
2023-03-15T03:34:12.113Z,22.42
2023-03-15T03:36:38.476Z,22.45
2023-03-15T03:39:04.844Z,22.42
2023-03-15T03:41:31.363Z,22.44
2023-03-15T03:43:58.051Z,22.39
2023-03-15T03:46:24.659Z,22.40
2023-03-15T03:48:51.744Z,22.39
2023-03-15T03:51:18.728Z,22.36
2023-03-15T03:53:45.059Z,22.36
2023-03-15T03:56:11.664Z,22.34
2023-03-15T03:58:38.495Z,22.31
2023-03-15T04:01:05.027Z,22.31
2023-03-15T04:03:31.588Z,22.28
2023-03-15T04:05:58.518Z,22.26
2023-03-15T04:08:25.552Z,22.24
2023-03-15T04:10:55.175Z,22.24
2023-03-15T04:13:21.500Z,22.21
2023-03-15T04:15:48.100Z,22.20
2023-03-15T04:18:14.533Z,22.25
2023-03-15T04:20:46.725Z,22.28
2023-03-15T04:23:13.752Z,22.27
2023-03-15T04:25:40.062Z,22.25
2023-03-15T04:28:10.533Z,22.25
2023-03-15T04:30:36.862Z,22.21
2023-03-15T04:33:03.590Z,22.20
2023-03-15T04:35:30.624Z,22.11
2023-03-15T04:37:59.912Z,22.14
2023-03-15T04:40:29.764Z,22.12
2023-03-15T04:42:56.192Z,22.10
2023-03-15T04:45:25.899Z,22.08
2023-03-15T04:47:52.319Z,22.05
2023-03-15T04:50:18.651Z,22.02
2023-03-15T04:52:44.998Z,22.01
2023-03-15T04:55:11.314Z,22.00
2023-03-15T04:57:37.633Z,22.00
2023-03-15T05:00:10.232Z,22.02
2023-03-15T05:02:39.980Z,22.01
2023-03-15T05:05:06.570Z,21.99
2023-03-15T05:07:35.656Z,21.97
2023-03-15T05:10:01.962Z,21.94
2023-03-15T05:12:28.602Z,21.92
2023-03-15T05:14:54.973Z,21.91
2023-03-15T05:17:22.457Z,21.90
2023-03-15T05:19:49.174Z,21.89
2023-03-15T05:22:15.488Z,21.88
2023-03-15T05:24:41.807Z,21.90
2023-03-15T05:27:08.112Z,21.90
2023-03-15T05:29:34.439Z,21.91
2023-03-15T05:32:04.264Z,21.92
2023-03-15T05:34:32.214Z,21.90
2023-03-15T05:36:58.884Z,21.87
2023-03-15T05:39:25.486Z,21.86
2023-03-15T05:41:51.804Z,21.81
2023-03-15T05:44:18.132Z,21.78
2023-03-15T05:46:44.778Z,21.75
2023-03-15T05:49:11.094Z,21.73
2023-03-15T05:51:37.416Z,21.70
2023-03-15T05:54:03.758Z,21.73
2023-03-15T05:56:30.073Z,21.74
2023-03-15T05:58:56.406Z,21.73
2023-03-15T06:01:22.930Z,21.72
2023-03-15T06:03:49.366Z,21.72
2023-03-15T06:06:16.017Z,21.71
2023-03-15T06:08:42.349Z,21.72
2023-03-15T06:11:08.656Z,21.69
2023-03-15T06:13:34.972Z,21.68
2023-03-15T06:16:01.279Z,21.66
2023-03-15T06:18:27.910Z,21.67
2023-03-15T06:20:54.221Z,21.66
2023-03-15T06:23:20.544Z,21.65
2023-03-15T06:25:47.034Z,21.63
2023-03-15T06:28:13.383Z,21.63
2023-03-15T06:30:40.898Z,21.63
2023-03-15T06:33:07.260Z,21.62
2023-03-15T06:35:33.631Z,21.62
2023-03-15T06:38:00.002Z,21.61
2023-03-15T06:40:26.341Z,21.60
2023-03-15T06:42:52.880Z,21.59
2023-03-15T06:45:19.189Z,21.57
2023-03-15T06:47:45.512Z,21.56
2023-03-15T06:50:11.840Z,21.54
2023-03-15T06:52:38.705Z,21.53
2023-03-15T06:55:05.341Z,21.52
2023-03-15T06:57:31.718Z,21.48
2023-03-15T06:59:58.036Z,21.45
2023-03-15T07:02:24.426Z,21.44
2023-03-15T07:04:50.854Z,21.44
2023-03-15T07:07:17.209Z,21.46
2023-03-15T07:09:43.882Z,21.46
2023-03-15T07:12:10.658Z,21.45
2023-03-15T07:14:37.001Z,21.49
2023-03-15T07:17:03.371Z,21.49
2023-03-15T07:19:29.694Z,21.51
2023-03-15T07:21:56.479Z,21.51
2023-03-15T07:24:22.861Z,21.50
2023-03-15T07:26:50.439Z,21.51
2023-03-15T07:29:18.431Z,21.59
2023-03-15T07:31:44.747Z,21.56
2023-03-15T07:34:11.347Z,21.52
2023-03-15T07:36:37.740Z,21.50
2023-03-15T07:39:05.141Z,21.49
2023-03-15T07:41:31.456Z,21.49
2023-03-15T07:43:58.605Z,21.53
2023-03-15T07:46:25.015Z,21.55
2023-03-15T07:48:51.355Z,21.54
2023-03-15T07:51:17.887Z,21.80
2023-03-15T07:53:44.224Z,21.96
2023-03-15T07:56:10.795Z,21.89
2023-03-15T07:58:37.193Z,21.91
2023-03-15T08:01:03.512Z,21.90
2023-03-15T08:03:29.917Z,21.97
2023-03-15T08:05:59.173Z,22.10
2023-03-15T08:08:26.222Z,22.22
2023-03-15T08:10:52.576Z,22.32
2023-03-15T08:13:18.887Z,22.42
2023-03-15T08:15:45.664Z,22.53
2023-03-15T08:18:11.991Z,22.65
2023-03-15T08:20:38.320Z,22.77
2023-03-15T08:23:04.667Z,22.87
2023-03-15T08:25:31.072Z,22.87
2023-03-15T08:27:57.407Z,22.92
2023-03-15T08:30:23.851Z,23.00
2023-03-15T08:32:51.217Z,23.12
2023-03-15T08:35:17.679Z,23.16
2023-03-15T08:37:47.751Z,23.22
2023-03-15T08:42:40.426Z,23.29
2023-03-15T08:45:07.706Z,23.28
2023-03-15T08:47:35.268Z,23.36
2023-03-15T08:50:05.971Z,23.43
2023-03-15T08:52:32.304Z,23.47
2023-03-15T08:54:58.644Z,23.52
2023-03-15T08:57:25.882Z,23.55
2023-03-15T08:59:52.615Z,23.58
2023-03-15T09:02:18.960Z,23.57
2023-03-15T09:04:45.441Z,23.46
2023-03-15T09:07:12.484Z,23.33
2023-03-15T09:09:38.832Z,23.37
2023-03-15T09:12:05.212Z,23.20
2023-03-15T09:14:31.643Z,23.06
2023-03-15T09:16:57.972Z,23.01
2023-03-15T09:19:24.363Z,22.93
2023-03-15T09:21:51.182Z,22.91
2023-03-15T09:24:19.474Z,22.91
2023-03-15T09:26:45.792Z,22.92
2023-03-15T09:29:12.105Z,22.99
2023-03-15T09:31:38.486Z,23.08
2023-03-15T09:34:05.710Z,23.17
2023-03-15T09:36:32.410Z,23.18
2023-03-15T09:38:59.015Z,23.15
2023-03-15T09:41:42.188Z,23.12
2023-03-15T09:44:11.943Z,23.15
2023-03-15T09:46:42.102Z,23.22
2023-03-15T09:49:10.824Z,23.25
2023-03-15T09:51:50.931Z,23.26
2023-03-15T09:54:24.775Z,23.16
2023-03-15T09:56:58.228Z,23.13
2023-03-15T09:59:38.899Z,23.05
2023-03-15T10:02:24.606Z,23.11
2023-03-15T10:04:52.251Z,23.20
2023-03-15T10:07:18.628Z,23.34
2023-03-15T10:09:44.968Z,23.40
2023-03-15T10:12:25.236Z,23.47
2023-03-15T10:14:56.630Z,23.47
2023-03-15T10:17:37.834Z,23.46
2023-03-15T10:20:10.312Z,23.52
2023-03-15T10:22:52.003Z,23.35
2023-03-15T10:25:28.209Z,23.21
2023-03-15T10:28:13.903Z,23.13
2023-03-15T10:30:40.493Z,23.07
2023-03-15T10:33:12.283Z,23.05
2023-03-15T10:35:38.638Z,23.05
2023-03-15T10:38:18.202Z,23.04
2023-03-15T10:40:48.835Z,23.04
2023-03-15T10:43:18.211Z,23.04
2023-03-15T10:46:00.194Z,23.06
2023-03-15T10:48:29.837Z,23.08
2023-03-15T10:50:57.248Z,23.06
2023-03-15T10:53:26.877Z,23.05
2023-03-15T10:56:00.380Z,23.04
2023-03-15T10:58:33.084Z,23.10
2023-03-15T11:01:04.053Z,23.18
2023-03-15T11:03:31.189Z,23.28
2023-03-15T11:05:58.282Z,23.23
2023-03-15T11:08:25.558Z,23.11
2023-03-15T11:10:58.874Z,23.02
2023-03-15T11:13:28.620Z,22.97
2023-03-15T11:16:05.612Z,22.93
2023-03-15T11:18:33.442Z,22.88
2023-03-15T11:20:59.774Z,22.84
2023-03-15T11:23:27.335Z,22.88
2023-03-15T11:25:54.244Z,22.95
2023-03-15T11:28:21.861Z,23.12
2023-03-15T11:30:48.688Z,23.21
2023-03-15T11:33:44.547Z,23.26
2023-03-15T11:36:17.668Z,23.33
2023-03-15T11:38:44.453Z,23.38
2023-03-15T11:41:19.165Z,23.46
2023-03-15T11:43:45.679Z,23.56
2023-03-15T11:46:15.052Z,23.64
2023-03-15T11:48:47.084Z,23.71
2023-03-15T11:51:13.395Z,23.65
2023-03-15T11:53:47.429Z,23.56
2023-03-15T11:56:20.936Z,23.51
2023-03-15T11:59:02.229Z,23.47
2023-03-15T12:01:28.550Z,23.40
2023-03-15T12:04:15.552Z,23.38
2023-03-15T12:06:42.125Z,23.33
2023-03-15T12:09:26.965Z,23.30
2023-03-15T12:14:28.071Z,23.16
2023-03-15T12:16:57.386Z,23.19
2023-03-15T12:19:23.722Z,23.22
2023-03-15T12:21:50.551Z,23.26
2023-03-15T12:24:21.623Z,23.33
2023-03-15T12:26:58.274Z,23.36
2023-03-15T12:29:25.860Z,23.44
2023-03-15T12:31:53.582Z,23.46
2023-03-15T12:34:38.846Z,23.46
2023-03-15T12:37:06.477Z,23.42
2023-03-15T12:39:40.234Z,23.45
2023-03-15T12:42:06.671Z,23.51
2023-03-15T12:44:32.947Z,23.57
2023-03-15T12:46:59.801Z,23.58
2023-03-15T12:49:26.044Z,23.58
2023-03-15T12:52:01.205Z,23.60
2023-03-15T12:54:31.826Z,23.53
2023-03-15T12:56:59.166Z,23.44
2023-03-15T12:59:34.606Z,23.37
2023-03-15T13:02:01.421Z,23.31
2023-03-15T13:04:28.650Z,23.26
2023-03-15T13:07:02.735Z,23.21
2023-03-15T13:09:28.988Z,23.17
2023-03-15T13:12:05.114Z,23.11
2023-03-15T13:14:33.555Z,23.10
2023-03-15T13:17:06.461Z,23.08
2023-03-15T13:19:36.217Z,23.10
2023-03-15T13:22:02.757Z,23.10
2023-03-15T13:24:40.065Z,23.11
2023-03-15T13:27:09.165Z,23.12
2023-03-15T13:29:35.475Z,23.08
2023-03-15T13:32:01.749Z,23.06
2023-03-15T13:34:30.817Z,23.01
2023-03-15T13:36:57.660Z,23.06
2023-03-15T13:39:24.256Z,23.11
2023-03-15T13:41:56.105Z,23.14
2023-03-15T13:44:23.600Z,23.16
2023-03-15T13:46:50.037Z,23.16
2023-03-15T13:49:16.385Z,23.18
2023-03-15T13:51:42.789Z,23.18
2023-03-15T13:54:19.147Z,23.21
2023-03-15T13:57:05.134Z,23.21
2023-03-15T14:00:00.954Z,23.20
2023-03-15T14:02:35.263Z,23.19
2023-03-15T14:05:03.076Z,23.18
2023-03-15T14:07:29.946Z,23.17
2023-03-15T14:10:09.367Z,23.15
2023-03-15T14:12:35.746Z,23.18
2023-03-15T14:15:02.061Z,23.17
2023-03-15T14:17:29.084Z,23.17
2023-03-15T14:19:56.825Z,23.17
2023-03-15T14:22:23.148Z,23.14
2023-03-15T14:24:50.185Z,23.14
2023-03-15T14:27:24.729Z,23.16
2023-03-15T14:29:50.975Z,23.06
2023-03-15T14:32:24.619Z,23.04
2023-03-15T14:34:51.009Z,22.94
2023-03-15T14:37:37.619Z,22.88
2023-03-15T14:40:15.765Z,22.91
2023-03-15T14:42:42.964Z,22.91
2023-03-15T14:45:09.461Z,22.93
2023-03-15T14:47:48.606Z,22.90
2023-03-15T14:50:21.577Z,22.88
2023-03-15T14:52:49.050Z,22.85
2023-03-15T14:55:16.448Z,22.83
2023-03-15T14:57:42.761Z,22.80
2023-03-15T15:00:13.633Z,22.80
2023-03-15T15:02:40.126Z,22.79
2023-03-15T15:05:16.183Z,22.74
2023-03-15T15:07:42.769Z,22.76
2023-03-15T15:10:09.508Z,22.73
2023-03-15T15:12:36.077Z,22.74
2023-03-15T15:15:05.879Z,22.74
2023-03-15T15:17:32.188Z,22.70
2023-03-15T15:19:58.517Z,22.66
2023-03-15T15:22:24.891Z,22.63
2023-03-15T15:24:51.498Z,22.59
2023-03-15T15:27:17.828Z,22.57
2023-03-15T15:29:44.829Z,22.54
2023-03-15T15:32:11.154Z,22.57
2023-03-15T15:34:37.529Z,22.52
2023-03-15T15:37:04.550Z,22.49
2023-03-15T15:39:30.873Z,22.49
2023-03-15T15:41:57.205Z,22.48
2023-03-15T15:44:25.434Z,22.45
2023-03-15T15:46:51.846Z,22.43
2023-03-15T15:49:19.399Z,22.40
2023-03-15T15:51:46.105Z,22.39
2023-03-15T15:54:13.611Z,22.37
2023-03-15T15:56:40.145Z,22.35
2023-03-15T15:59:06.749Z,22.34
2023-03-15T16:01:33.224Z,22.31
2023-03-15T16:04:00.156Z,22.30
2023-03-15T16:06:27.161Z,22.30
2023-03-15T16:08:53.789Z,22.27
2023-03-15T16:11:20.121Z,22.28
2023-03-15T16:13:46.524Z,22.24
2023-03-15T16:16:14.185Z,22.22
2023-03-15T16:18:40.531Z,22.20
2023-03-15T16:21:06.848Z,22.17
2023-03-15T16:23:33.157Z,22.11
2023-03-15T16:25:59.486Z,22.13
2023-03-15T16:28:25.800Z,22.10
2023-03-15T16:30:52.174Z,22.08
2023-03-15T16:33:19.291Z,22.06
2023-03-15T16:35:45.726Z,22.05
2023-03-15T16:38:13.560Z,21.99
2023-03-15T16:40:40.256Z,21.98
2023-03-15T16:43:08.584Z,22.07
2023-03-15T16:45:34.982Z,22.35
2023-03-15T16:48:01.569Z,22.73
2023-03-15T16:50:28.168Z,23.00
2023-03-15T16:52:54.902Z,23.17
2023-03-15T16:55:24.830Z,23.30
2023-03-15T16:57:51.163Z,23.49
2023-03-15T17:00:18.194Z,23.63
2023-03-15T17:02:48.177Z,23.76
2023-03-15T17:05:19.742Z,23.93
2023-03-15T17:07:49.465Z,23.96
2023-03-15T17:10:23.151Z,24.02
2023-03-15T17:12:50.704Z,24.13
2023-03-15T17:15:18.042Z,24.20
2023-03-15T17:17:44.390Z,24.15
2023-03-15T17:20:12.724Z,24.20
2023-03-15T17:22:41.879Z,24.32
2023-03-15T17:25:08.266Z,24.40
2023-03-15T17:27:35.596Z,24.42
2023-03-15T17:30:01.951Z,24.45
2023-03-15T17:32:29.097Z,24.55
2023-03-15T17:34:58.756Z,24.59
2023-03-15T17:37:25.084Z,24.63
2023-03-15T17:39:51.393Z,24.59
2023-03-15T17:42:17.717Z,24.64
2023-03-15T17:44:44.028Z,24.54
2023-03-15T17:47:13.345Z,24.51
2023-03-15T17:49:39.725Z,24.51
2023-03-15T17:52:10.996Z,24.52
2023-03-15T17:54:37.310Z,24.56
2023-03-15T17:57:03.790Z,24.63
2023-03-15T17:59:30.107Z,24.67
2023-03-15T18:01:56.433Z,24.70
2023-03-15T18:04:23.467Z,24.68
2023-03-15T18:06:49.838Z,24.63
2023-03-15T18:09:16.233Z,24.73
2023-03-15T18:11:42.698Z,24.73
2023-03-15T18:14:13.398Z,24.76
2023-03-15T18:16:40.014Z,24.73
2023-03-15T18:19:06.368Z,24.80
2023-03-15T18:21:32.720Z,24.94
2023-03-15T18:23:59.028Z,24.84
2023-03-15T18:26:25.345Z,24.83
2023-03-15T18:28:51.705Z,24.81
2023-03-15T18:31:19.077Z,24.84
2023-03-15T18:33:45.437Z,24.79
2023-03-15T18:36:11.788Z,24.82
2023-03-15T18:38:38.688Z,24.89
2023-03-15T18:41:06.219Z,24.87
2023-03-15T18:43:32.526Z,24.84
2023-03-15T18:45:58.902Z,24.80
2023-03-15T18:48:39.656Z,24.81
2023-03-15T18:51:09.061Z,24.71
2023-03-15T18:53:35.387Z,24.69
2023-03-15T18:56:01.702Z,24.66
2023-03-15T18:58:28.037Z,24.71
2023-03-15T19:00:54.591Z,24.73
2023-03-15T19:03:21.026Z,24.74
2023-03-15T19:05:47.439Z,24.77
2023-03-15T19:08:13.765Z,24.76
2023-03-15T19:10:40.065Z,24.71
2023-03-15T19:13:06.403Z,24.69
2023-03-15T19:15:32.969Z,24.64
2023-03-15T19:17:59.321Z,24.66
2023-03-15T19:20:26.457Z,24.63
2023-03-15T19:22:52.828Z,24.56
2023-03-15T19:25:19.172Z,24.57
2023-03-15T19:27:45.548Z,24.57
2023-03-15T19:30:14.305Z,24.58
2023-03-15T19:32:42.645Z,24.66
2023-03-15T19:35:09.157Z,24.66
2023-03-15T19:37:35.736Z,24.71
2023-03-15T19:40:02.143Z,24.61
2023-03-15T19:42:28.445Z,24.62
2023-03-15T19:44:54.759Z,24.63
2023-03-15T19:47:21.086Z,24.62
2023-03-15T19:49:47.443Z,24.51
2023-03-15T19:52:15.867Z,24.45
2023-03-15T19:54:42.174Z,24.38
2023-03-15T19:57:08.481Z,24.38
2023-03-15T19:59:39.752Z,24.39
2023-03-15T20:02:06.899Z,24.35
2023-03-15T20:04:33.445Z,24.43
2023-03-15T20:06:59.763Z,24.53
2023-03-15T20:09:26.078Z,24.52
2023-03-15T20:11:52.394Z,24.52
2023-03-15T20:14:20.588Z,24.63
2023-03-15T20:16:46.901Z,24.80
2023-03-15T20:19:13.210Z,24.83
2023-03-15T20:21:39.537Z,24.89
2023-03-15T20:24:07.739Z,25.14
2023-03-15T20:26:34.047Z,25.14
2023-03-15T20:29:01.147Z,25.13
2023-03-15T20:31:27.828Z,25.18
2023-03-15T20:33:54.233Z,25.14
2023-03-15T20:36:21.774Z,25.14
2023-03-15T20:38:48.106Z,25.16
2023-03-15T20:41:14.573Z,25.19
2023-03-15T20:43:41.250Z,25.14
2023-03-15T20:46:07.643Z,25.15
2023-03-15T20:48:34.987Z,25.18
2023-03-15T20:51:04.089Z,25.26
2023-03-15T20:53:33.961Z,25.26
2023-03-15T20:56:00.616Z,25.17
2023-03-15T20:58:26.958Z,25.06
2023-03-15T21:01:02.558Z,24.96
2023-03-15T21:03:31.485Z,24.90
2023-03-15T21:05:57.881Z,24.89
2023-03-15T21:08:24.213Z,24.90
2023-03-15T21:10:50.540Z,24.95
2023-03-15T21:13:17.280Z,24.93
2023-03-15T21:15:46.848Z,24.92
2023-03-15T21:18:16.731Z,24.89
2023-03-15T21:20:43.068Z,24.85
2023-03-15T21:23:09.428Z,24.84
2023-03-15T21:25:35.746Z,24.81
2023-03-15T21:28:02.115Z,24.79
2023-03-15T21:30:28.420Z,24.76
2023-03-15T21:32:54.755Z,24.76
2023-03-15T21:35:22.305Z,24.73
2023-03-15T21:37:48.736Z,24.68
2023-03-15T21:40:15.302Z,24.66
2023-03-15T21:42:42.675Z,24.67
2023-03-15T21:45:09.557Z,24.66
2023-03-15T21:47:36.740Z,24.64
2023-03-15T21:50:03.066Z,24.61
2023-03-15T21:52:29.427Z,24.58
2023-03-15T21:54:55.853Z,24.57
2023-03-15T21:57:22.451Z,24.55
2023-03-15T21:59:49.467Z,24.52
2023-03-15T22:02:16.649Z,24.49
2023-03-15T22:04:43.352Z,24.47
2023-03-15T22:07:11.004Z,24.43
2023-03-15T22:09:38.029Z,24.41
2023-03-15T22:12:04.936Z,24.41
2023-03-15T22:14:31.274Z,24.38
2023-03-15T22:16:57.638Z,24.35
2023-03-15T22:19:24.016Z,24.38
2023-03-15T22:21:50.328Z,24.41
2023-03-15T22:24:16.648Z,24.46
2023-03-15T22:26:43.073Z,24.36
2023-03-15T22:29:09.528Z,24.31
2023-03-15T22:31:38.086Z,24.28
2023-03-15T22:34:05.149Z,24.18
2023-03-15T22:36:33.733Z,24.14
2023-03-15T22:39:00.901Z,24.16
2023-03-15T22:41:27.299Z,24.12
2023-03-15T22:43:54.810Z,24.11
2023-03-15T22:46:21.219Z,24.09
2023-03-15T22:48:47.575Z,24.06
2023-03-15T22:51:14.705Z,24.04
2023-03-15T22:53:41.035Z,24.04
2023-03-15T22:56:07.396Z,24.02
2023-03-15T22:58:33.879Z,23.95
2023-03-15T23:01:00.202Z,23.91
2023-03-15T23:03:26.610Z,23.90
2023-03-15T23:05:53.397Z,23.90
2023-03-15T23:08:19.959Z,23.89
2023-03-15T23:10:46.273Z,23.86
2023-03-15T23:13:12.604Z,23.84
2023-03-15T23:15:38.949Z,23.83
2023-03-15T23:18:05.447Z,23.81
2023-03-15T23:20:31.769Z,23.78
2023-03-15T23:22:58.271Z,23.76
2023-03-15T23:25:24.759Z,23.74
2023-03-15T23:27:51.160Z,23.70
2023-03-15T23:30:17.479Z,23.67
2023-03-15T23:32:43.889Z,23.66
2023-03-15T23:35:12.119Z,23.65
2023-03-15T23:37:39.010Z,23.64
2023-03-15T23:40:12.695Z,23.61
2023-03-15T23:42:39.253Z,23.59
2023-03-15T23:45:05.899Z,23.59
2023-03-15T23:47:32.234Z,23.56
2023-03-15T23:49:58.587Z,23.56
2023-03-15T23:52:25.853Z,23.55
2023-03-15T23:54:53.782Z,23.53
2023-03-15T23:57:20.092Z,23.50
2023-03-15T23:59:46.428Z,23.45
